createdAt,value
2023-05-19T00:00:10.278Z,61.16
2023-05-19T00:01:11.486Z,60.95
2023-05-19T00:02:10.418Z,59.71
2023-05-19T00:03:11.211Z,61.49
2023-05-19T00:04:10.248Z,59.95
2023-05-19T00:05:10.399Z,61.29
2023-05-19T00:06:11.171Z,60.33
2023-05-19T00:07:10.227Z,60.41
2023-05-19T00:08:10.298Z,60.01
2023-05-19T00:09:10.242Z,61.11
2023-05-19T00:10:10.242Z,61.59
2023-05-19T00:11:11.247Z,60.47
2023-05-19T00:12:10.375Z,59.64
2023-05-19T00:13:10.228Z,59.79
2023-05-19T00:14:10.252Z,60.83
2023-05-19T00:15:10.287Z,60.89
2023-05-19T00:16:11.526Z,60.82
2023-05-19T00:17:11.347Z,60.71
2023-05-19T00:18:10.335Z,61.10
2023-05-19T00:19:10.835Z,59.94
2023-05-19T00:20:10.765Z,61.07
2023-05-19T00:21:10.501Z,58.08
2023-05-19T00:22:11.563Z,59.54
2023-05-19T00:23:11.597Z,60.15
2023-05-19T00:24:10.596Z,62.67
2023-05-19T00:25:10.575Z,61.51
2023-05-19T00:26:10.651Z,62.86
2023-05-19T00:27:11.857Z,58.96
2023-05-19T00:28:11.736Z,59.96
2023-05-19T00:29:10.700Z,60.91
2023-05-19T00:30:11.815Z,63.31
2023-05-19T00:31:10.870Z,60.36
2023-05-19T00:32:11.216Z,59.82
2023-05-19T00:33:11.084Z,60.80
2023-05-19T00:34:11.027Z,61.02
2023-05-19T00:35:12.108Z,59.35
2023-05-19T00:36:12.173Z,59.63
2023-05-19T00:37:11.964Z,59.39
2023-05-19T00:38:11.015Z,60.92
2023-05-19T00:39:12.207Z,60.76
2023-05-19T00:40:12.088Z,62.13
2023-05-19T00:41:12.095Z,61.14
2023-05-19T00:42:11.160Z,59.75
2023-05-19T00:43:12.195Z,61.58
2023-05-19T00:44:11.319Z,62.25
2023-05-19T00:45:11.260Z,58.32
2023-05-19T00:46:11.526Z,58.58
2023-05-19T00:47:11.375Z,58.00
2023-05-19T00:48:11.383Z,60.47
2023-05-19T00:49:11.787Z,57.49
2023-05-19T00:50:11.506Z,62.62
2023-05-19T00:51:11.679Z,59.54
2023-05-19T00:52:12.484Z,58.05
2023-05-19T00:53:11.561Z,58.24
2023-05-19T00:54:12.561Z,59.32
2023-05-19T00:55:11.703Z,58.02
2023-05-19T00:56:11.631Z,56.15
2023-05-19T00:57:11.627Z,56.96
2023-05-19T00:58:11.802Z,58.45
2023-05-19T00:59:12.773Z,58.67
2023-05-19T01:00:12.980Z,57.98
2023-05-19T01:01:12.105Z,60.43
2023-05-19T01:02:12.819Z,58.17
2023-05-19T01:03:13.293Z,57.77
2023-05-19T01:04:11.981Z,59.22
2023-05-19T01:05:13.093Z,59.55
2023-05-19T01:06:12.329Z,60.03
2023-05-19T01:07:12.084Z,58.31
2023-05-19T01:08:13.005Z,57.38
2023-05-19T01:09:12.160Z,57.00
2023-05-19T01:10:13.058Z,58.34
2023-05-19T01:11:13.106Z,57.86
2023-05-19T01:12:13.164Z,57.14
2023-05-19T01:13:12.440Z,58.22
2023-05-19T01:14:12.347Z,58.50
2023-05-19T01:15:13.522Z,57.07
2023-05-19T01:16:12.559Z,56.82
2023-05-19T01:17:13.639Z,57.64
2023-05-19T01:18:12.351Z,56.69
2023-05-19T01:19:13.504Z,56.64
2023-05-19T01:20:13.372Z,57.81
2023-05-19T01:21:13.569Z,59.29
2023-05-19T01:22:12.609Z,55.38
2023-05-19T01:23:12.664Z,56.91
2023-05-19T01:24:13.505Z,58.83
2023-05-19T01:25:13.609Z,58.87
2023-05-19T01:26:13.588Z,57.39
2023-05-19T01:27:13.842Z,58.06
2023-05-19T01:28:12.737Z,57.13
2023-05-19T01:29:13.945Z,58.60
2023-05-19T01:30:12.916Z,56.48
2023-05-19T01:31:13.952Z,58.24
2023-05-19T01:32:12.970Z,56.63
2023-05-19T01:33:13.923Z,57.78
2023-05-19T01:34:13.098Z,58.07
2023-05-19T01:35:13.020Z,59.35
2023-05-19T01:36:12.931Z,57.21
2023-05-19T01:37:14.137Z,57.78
2023-05-19T01:38:13.211Z,56.16
2023-05-19T01:39:13.206Z,57.12
2023-05-19T01:40:13.081Z,57.24
2023-05-19T01:41:13.120Z,59.11
2023-05-19T01:42:13.236Z,55.39
2023-05-19T01:43:13.195Z,56.37
2023-05-19T01:44:13.413Z,55.41
2023-05-19T01:45:14.250Z,57.53
2023-05-19T01:46:14.419Z,58.67
2023-05-19T01:47:13.352Z,55.87
2023-05-19T01:48:13.733Z,56.54
2023-05-19T01:49:14.437Z,56.69
2023-05-19T01:50:13.497Z,58.57
2023-05-19T01:51:14.467Z,58.92
2023-05-19T01:52:13.545Z,57.18
2023-05-19T01:53:13.833Z,57.51
2023-05-19T01:54:13.655Z,58.17
2023-05-19T01:55:13.818Z,57.19
2023-05-19T01:56:13.852Z,57.36
2023-05-19T01:57:13.732Z,58.15
2023-05-19T01:58:14.760Z,54.83
2023-05-19T01:59:14.798Z,56.21
2023-05-19T02:00:14.785Z,56.01
2023-05-19T02:01:13.845Z,58.53
2023-05-19T02:02:14.108Z,57.44
2023-05-19T02:03:14.114Z,56.29
2023-05-19T02:04:15.058Z,54.87
2023-05-19T02:05:14.050Z,55.58
2023-05-19T02:06:15.088Z,54.96
2023-05-19T02:07:14.274Z,55.34
2023-05-19T02:08:15.111Z,56.26
2023-05-19T02:09:14.244Z,56.85
2023-05-19T02:10:14.287Z,56.57
2023-05-19T02:11:14.181Z,56.60
2023-05-19T02:12:15.241Z,55.70
2023-05-19T02:13:15.293Z,56.25
2023-05-19T02:14:15.571Z,57.10
2023-05-19T02:15:14.421Z,57.27
2023-05-19T02:16:15.446Z,54.39
2023-05-19T02:17:14.619Z,55.52
2023-05-19T02:18:14.510Z,55.57
2023-05-19T02:19:15.781Z,55.01
2023-05-19T02:20:14.630Z,54.99
2023-05-19T02:21:14.666Z,55.41
2023-05-19T02:22:15.697Z,56.32
2023-05-19T02:23:15.947Z,56.52
2023-05-19T02:24:15.049Z,57.45
2023-05-19T02:25:15.949Z,57.37
2023-05-19T02:26:16.035Z,56.95
2023-05-19T02:27:16.104Z,55.99
2023-05-19T02:28:15.942Z,57.04
2023-05-19T02:29:14.978Z,56.22
2023-05-19T02:30:16.197Z,56.42
2023-05-19T02:31:15.172Z,59.04
2023-05-19T02:32:15.311Z,55.03
2023-05-19T02:33:16.385Z,55.83
2023-05-19T02:34:16.247Z,53.54
2023-05-19T02:35:15.260Z,56.38
2023-05-19T02:36:15.339Z,55.51
2023-05-19T02:37:15.404Z,55.37
2023-05-19T02:38:15.681Z,56.77
2023-05-19T02:39:15.587Z,54.76
2023-05-19T02:40:15.733Z,55.09
2023-05-19T02:41:16.723Z,54.94
2023-05-19T02:42:15.562Z,57.18
2023-05-19T02:43:15.799Z,58.95
2023-05-19T02:44:15.771Z,56.22
2023-05-19T02:45:15.838Z,56.65
2023-05-19T02:46:15.886Z,56.52
2023-05-19T02:47:15.929Z,53.13
2023-05-19T02:48:15.881Z,53.01
2023-05-19T02:49:15.993Z,57.16
2023-05-19T02:50:15.958Z,55.90
2023-05-19T02:51:17.070Z,54.26
2023-05-19T02:52:16.392Z,53.23
2023-05-19T02:53:16.377Z,54.28
2023-05-19T02:54:16.268Z,53.26
2023-05-19T02:55:17.280Z,55.74
2023-05-19T02:56:16.401Z,55.62
2023-05-19T02:57:17.392Z,56.62
2023-05-19T02:58:16.313Z,55.73
2023-05-19T02:59:17.337Z,54.11
2023-05-19T03:00:17.010Z,54.00
2023-05-19T03:01:16.545Z,52.80
2023-05-19T03:02:16.504Z,54.79
2023-05-19T03:03:16.808Z,54.65
2023-05-19T03:04:17.610Z,57.51
2023-05-19T03:05:16.809Z,54.50
2023-05-19T03:06:16.909Z,57.03
2023-05-19T03:07:17.780Z,57.16
2023-05-19T03:08:17.761Z,54.21
2023-05-19T03:09:17.878Z,52.21
2023-05-19T03:10:17.036Z,56.63
2023-05-19T03:11:17.967Z,53.57
2023-05-19T03:12:18.490Z,54.37
2023-05-19T03:13:17.195Z,54.43
2023-05-19T03:14:17.083Z,52.84
2023-05-19T03:15:17.122Z,53.51
2023-05-19T03:16:17.393Z,55.43
2023-05-19T03:17:17.334Z,53.20
2023-05-19T03:18:17.507Z,52.09
2023-05-19T03:19:18.397Z,56.55
2023-05-19T03:20:18.345Z,55.61
2023-05-19T03:21:18.369Z,53.74
2023-05-19T03:22:17.750Z,54.17
2023-05-19T03:23:17.555Z,54.81
2023-05-19T03:24:18.534Z,51.81
2023-05-19T03:25:19.123Z,55.33
2023-05-19T03:26:17.652Z,53.46
2023-05-19T03:27:17.753Z,51.50
2023-05-19T03:28:17.743Z,54.24
2023-05-19T03:29:18.998Z,53.40
2023-05-19T03:30:19.012Z,54.65
2023-05-19T03:31:18.178Z,53.12
2023-05-19T03:32:18.068Z,56.22
2023-05-19T03:33:18.120Z,53.32
2023-05-19T03:34:18.975Z,53.81
2023-05-19T03:35:18.202Z,51.05
2023-05-19T03:36:18.716Z,51.71
2023-05-19T03:37:18.362Z,52.57
2023-05-19T03:38:19.194Z,52.42
2023-05-19T03:39:18.224Z,52.00
2023-05-19T03:40:19.556Z,54.41
2023-05-19T03:41:19.441Z,52.49
2023-05-19T03:42:19.470Z,51.81
2023-05-19T03:43:19.586Z,51.91
2023-05-19T03:44:18.531Z,51.13
2023-05-19T03:45:18.759Z,52.27
2023-05-19T03:46:18.731Z,52.28
2023-05-19T03:47:19.793Z,52.21
2023-05-19T03:48:21.241Z,53.50
2023-05-19T03:49:18.708Z,54.67
2023-05-19T03:50:18.712Z,52.16
2023-05-19T03:51:18.884Z,51.83
2023-05-19T03:52:18.638Z,52.86
2023-05-19T03:53:19.632Z,52.45
2023-05-19T03:54:18.777Z,54.00
2023-05-19T03:55:18.600Z,54.34
2023-05-19T03:56:18.595Z,52.86
2023-05-19T03:57:18.599Z,52.38
2023-05-19T03:58:19.692Z,50.87
2023-05-19T03:59:19.608Z,54.34
2023-05-19T04:00:18.596Z,48.39
2023-05-19T04:01:18.578Z,51.53
2023-05-19T04:02:19.699Z,52.22
2023-05-19T04:03:19.779Z,51.22
2023-05-19T04:04:18.598Z,51.18
2023-05-19T04:05:18.554Z,50.79
2023-05-19T04:06:18.566Z,53.36
2023-05-19T04:07:19.612Z,50.16
2023-05-19T04:08:18.559Z,48.71
2023-05-19T04:09:18.553Z,48.44
2023-05-19T04:10:18.511Z,51.44
2023-05-19T04:11:19.632Z,46.76
2023-05-19T04:12:18.522Z,51.66
2023-05-19T04:13:19.491Z,51.04
2023-05-19T04:14:18.527Z,49.40
2023-05-19T04:15:19.487Z,48.44
2023-05-19T04:16:19.516Z,48.73
2023-05-19T04:17:19.604Z,49.06
2023-05-19T04:18:18.455Z,49.91
2023-05-19T04:19:19.555Z,48.68
2023-05-19T04:20:19.469Z,50.33
2023-05-19T04:21:19.533Z,48.41
2023-05-19T04:22:18.568Z,49.39
2023-05-19T04:23:19.641Z,46.74
2023-05-19T04:24:18.684Z,48.02
2023-05-19T04:25:19.737Z,47.35
2023-05-19T04:26:18.810Z,49.04
2023-05-19T04:27:19.840Z,49.03
2023-05-19T04:28:18.904Z,47.70
2023-05-19T04:29:18.938Z,48.29
2023-05-19T04:30:20.031Z,46.61
2023-05-19T04:31:19.115Z,49.63
2023-05-19T04:32:19.084Z,46.41
2023-05-19T04:33:20.148Z,46.61
2023-05-19T04:34:20.260Z,48.81
2023-05-19T04:35:19.236Z,49.22
2023-05-19T04:36:20.288Z,47.53
2023-05-19T04:37:19.341Z,46.00
2023-05-19T04:38:20.411Z,47.61
2023-05-19T04:39:19.492Z,47.74
2023-05-19T04:40:20.508Z,50.29
2023-05-19T04:41:20.562Z,48.97
2023-05-19T04:42:19.632Z,48.06
2023-05-19T04:43:19.724Z,48.36
2023-05-19T04:44:20.753Z,47.12
2023-05-19T04:45:19.762Z,44.87
2023-05-19T04:46:20.883Z,46.03
2023-05-19T04:47:19.881Z,44.19
2023-05-19T04:48:20.950Z,45.34
2023-05-19T04:49:21.014Z,44.49
2023-05-19T04:50:21.056Z,44.37
2023-05-19T04:51:20.157Z,45.26
2023-05-19T04:52:21.136Z,45.47
2023-05-19T04:53:20.215Z,43.80
2023-05-19T04:54:20.242Z,46.35
2023-05-19T04:55:21.286Z,44.06
2023-05-19T04:56:20.334Z,44.15
2023-05-19T04:57:21.398Z,44.28
2023-05-19T04:58:21.475Z,44.10
2023-05-19T04:59:20.489Z,44.27
2023-05-19T05:00:20.548Z,45.70
2023-05-19T05:01:21.639Z,45.07
2023-05-19T05:02:20.768Z,41.83
2023-05-19T05:03:21.215Z,45.35
2023-05-19T05:04:21.747Z,44.89
2023-05-19T05:05:21.779Z,45.32
2023-05-19T05:06:22.358Z,42.84
2023-05-19T05:07:21.218Z,45.95
2023-05-19T05:08:21.432Z,43.10
2023-05-19T05:09:22.098Z,41.95
2023-05-19T05:10:21.050Z,43.56
2023-05-19T05:11:22.109Z,43.50
2023-05-19T05:12:21.148Z,43.68
2023-05-19T05:13:21.654Z,43.04
2023-05-19T05:14:22.257Z,41.41
2023-05-19T05:15:22.349Z,41.77
2023-05-19T05:16:22.431Z,43.84
2023-05-19T05:17:21.422Z,40.21
2023-05-19T05:18:21.477Z,38.62
2023-05-19T05:19:22.762Z,42.82
2023-05-19T05:20:22.621Z,40.20
2023-05-19T05:21:21.841Z,40.18
2023-05-19T05:22:22.686Z,39.95
2023-05-19T05:23:21.827Z,41.58
2023-05-19T05:24:22.748Z,40.95
2023-05-19T05:25:22.823Z,42.35
2023-05-19T05:26:22.858Z,41.88
2023-05-19T05:27:22.924Z,37.84
2023-05-19T05:28:23.361Z,39.51
2023-05-19T05:29:21.998Z,40.72
2023-05-19T05:30:22.768Z,39.34
2023-05-19T05:31:23.087Z,39.70
2023-05-19T05:32:23.182Z,39.90
2023-05-19T05:33:23.284Z,38.78
2023-05-19T05:34:22.499Z,39.77
2023-05-19T05:35:22.285Z,37.98
2023-05-19T05:36:22.369Z,36.83
2023-05-19T05:37:23.374Z,39.02
2023-05-19T05:38:23.445Z,38.63
2023-05-19T05:39:22.466Z,38.02
2023-05-19T05:40:23.513Z,37.34
2023-05-19T05:41:22.801Z,38.86
2023-05-19T05:42:22.621Z,38.15
2023-05-19T05:43:23.702Z,38.52
2023-05-19T05:44:23.814Z,37.87
2023-05-19T05:45:23.789Z,40.89
2023-05-19T05:46:23.809Z,37.47
2023-05-19T05:47:23.856Z,38.88
2023-05-19T05:48:23.895Z,38.37
2023-05-19T05:49:24.007Z,39.26
2023-05-19T05:50:24.417Z,36.24
2023-05-19T05:51:23.075Z,35.47
2023-05-19T05:52:23.149Z,37.59
2023-05-19T05:53:23.184Z,37.03
2023-05-19T05:54:24.195Z,35.39
2023-05-19T05:55:24.237Z,37.90
2023-05-19T05:56:24.323Z,37.41
2023-05-19T05:57:24.332Z,35.09
2023-05-19T05:58:23.565Z,36.53
2023-05-19T05:59:23.473Z,35.93
2023-05-19T06:00:24.695Z,35.20
2023-05-19T06:01:23.560Z,34.28
2023-05-19T06:02:24.671Z,36.38
2023-05-19T06:03:23.767Z,34.67
2023-05-19T06:04:24.666Z,37.68
2023-05-19T06:05:24.750Z,34.87
2023-05-19T06:06:24.836Z,35.14
2023-05-19T06:07:24.856Z,35.42
2023-05-19T06:08:24.851Z,33.61
2023-05-19T06:09:24.963Z,34.35
2023-05-19T06:10:23.976Z,33.76
2023-05-19T06:11:24.982Z,33.80
2023-05-19T06:12:24.971Z,33.36
2023-05-19T06:13:24.151Z,32.19
2023-05-19T06:14:25.059Z,32.53
2023-05-19T06:15:24.094Z,32.62
2023-05-19T06:16:25.255Z,34.24
2023-05-19T06:17:25.234Z,32.26
2023-05-19T06:18:24.186Z,33.30
2023-05-19T06:19:24.332Z,30.21
2023-05-19T06:20:24.428Z,31.46
2023-05-19T06:21:24.292Z,30.50
2023-05-19T06:22:24.366Z,29.35
2023-05-19T06:23:24.412Z,30.45
2023-05-19T06:24:25.519Z,31.79
2023-05-19T06:25:25.463Z,33.51
2023-05-19T06:26:24.559Z,30.30
2023-05-19T06:27:24.532Z,30.90
2023-05-19T06:28:25.668Z,30.42
2023-05-19T06:29:24.605Z,27.93
2023-05-19T06:30:25.656Z,29.99
2023-05-19T06:31:25.714Z,30.45
2023-05-19T06:32:25.715Z,29.63
2023-05-19T06:33:28.857Z,29.50
2023-05-19T06:34:25.745Z,29.64
2023-05-19T06:35:24.734Z,30.11
2023-05-19T06:36:25.726Z,29.57
2023-05-19T06:37:24.850Z,28.58
2023-05-19T06:38:25.793Z,26.99
2023-05-19T06:39:25.585Z,28.39
2023-05-19T06:40:26.092Z,27.92
2023-05-19T06:41:25.635Z,26.72
2023-05-19T06:42:25.779Z,28.23
2023-05-19T06:43:25.733Z,26.05
2023-05-19T06:44:25.886Z,26.04
2023-05-19T06:45:25.743Z,26.46
2023-05-19T06:46:24.714Z,25.06
2023-05-19T06:47:25.704Z,25.99
2023-05-19T06:48:24.638Z,28.46
2023-05-19T06:49:24.811Z,27.10
2023-05-19T06:50:25.625Z,25.04
2023-05-19T06:51:25.630Z,27.51
2023-05-19T06:52:25.620Z,27.64
2023-05-19T06:53:25.599Z,29.51
2023-05-19T06:54:24.708Z,27.54
2023-05-19T06:55:25.579Z,26.26
2023-05-19T06:56:25.627Z,27.38
2023-05-19T06:57:24.576Z,27.58
2023-05-19T06:58:25.683Z,27.70
2023-05-19T06:59:26.215Z,26.34
2023-05-19T07:00:24.803Z,26.42
2023-05-19T07:01:24.566Z,26.78
2023-05-19T07:02:25.595Z,29.80
2023-05-19T07:03:25.629Z,27.30
2023-05-19T07:04:24.635Z,26.28
2023-05-19T07:05:25.524Z,28.55
2023-05-19T07:06:25.556Z,29.06
2023-05-19T07:07:24.574Z,29.53
2023-05-19T07:08:24.594Z,26.53
2023-05-19T07:09:25.783Z,26.15
2023-05-19T07:10:25.241Z,28.01
2023-05-19T07:11:25.667Z,27.20
2023-05-19T07:12:25.783Z,27.68
2023-05-19T07:13:27.252Z,26.65
2023-05-19T07:14:25.698Z,25.00
2023-05-19T07:15:24.666Z,30.07
2023-05-19T07:16:24.709Z,27.81
2023-05-19T07:17:25.683Z,27.73
2023-05-19T07:18:24.752Z,27.37
2023-05-19T07:19:25.790Z,25.33
2023-05-19T07:20:25.690Z,26.80
2023-05-19T07:21:25.698Z,25.47
2023-05-19T07:22:24.693Z,27.22
2023-05-19T07:23:25.605Z,27.18
2023-05-19T07:24:25.600Z,25.00
2023-05-19T07:25:25.595Z,28.59
2023-05-19T07:26:25.644Z,28.10
2023-05-19T07:27:25.679Z,29.16
2023-05-19T07:28:24.579Z,25.55
2023-05-19T07:29:25.664Z,27.78
2023-05-19T07:30:24.557Z,28.58
2023-05-19T07:31:24.595Z,28.05
2023-05-19T07:32:25.700Z,28.50
2023-05-19T07:33:25.539Z,29.54
2023-05-19T07:34:24.534Z,29.61
2023-05-19T07:35:24.587Z,30.79
2023-05-19T07:36:24.498Z,28.60
2023-05-19T07:37:25.499Z,28.83
2023-05-19T07:38:24.517Z,29.79
2023-05-19T07:39:25.527Z,30.41
2023-05-19T07:40:25.528Z,28.19
2023-05-19T07:41:24.623Z,28.46
2023-05-19T07:42:25.533Z,28.05
2023-05-19T07:43:25.469Z,28.26
2023-05-19T07:44:25.462Z,30.24
2023-05-19T07:45:24.462Z,28.30
2023-05-19T07:46:25.625Z,28.93
2023-05-19T07:47:25.643Z,28.29
2023-05-19T07:48:25.433Z,27.07
2023-05-19T07:49:24.425Z,28.23
2023-05-19T07:50:24.489Z,28.77
2023-05-19T07:51:25.425Z,27.81
2023-05-19T07:52:24.429Z,27.19
2023-05-19T07:53:25.426Z,27.23
2023-05-19T07:54:24.442Z,27.16
2023-05-19T07:55:25.385Z,28.02
2023-05-19T07:56:24.401Z,27.96
2023-05-19T07:57:24.363Z,28.15
2023-05-19T07:58:25.399Z,28.11
2023-05-19T07:59:24.357Z,27.45
2023-05-19T08:00:25.381Z,27.32
2023-05-19T08:01:24.333Z,26.82
2023-05-19T08:02:25.413Z,29.75
2023-05-19T08:03:25.439Z,30.01
2023-05-19T08:04:25.319Z,31.37
2023-05-19T08:05:25.305Z,34.17
2023-05-19T08:06:25.320Z,31.29
2023-05-19T08:07:24.326Z,31.77
2023-05-19T08:08:25.307Z,30.46
2023-05-19T08:09:25.497Z,31.00
2023-05-19T08:10:24.318Z,31.08
2023-05-19T08:11:25.422Z,30.75
2023-05-19T08:12:24.343Z,29.30
2023-05-19T08:13:25.378Z,30.01
2023-05-19T08:14:25.466Z,30.03
2023-05-19T08:15:24.502Z,32.14
2023-05-19T08:16:25.728Z,31.14
2023-05-19T08:17:24.849Z,28.48
2023-05-19T08:18:24.755Z,28.08
2023-05-19T08:19:25.856Z,26.86
2023-05-19T08:20:24.803Z,29.46
2023-05-19T08:21:24.996Z,29.54
2023-05-19T08:22:25.934Z,31.50
2023-05-19T08:23:26.007Z,33.06
2023-05-19T08:24:26.028Z,33.11
2023-05-19T08:25:25.088Z,33.04
2023-05-19T08:26:26.118Z,32.08
2023-05-19T08:27:25.184Z,30.96
2023-05-19T08:28:25.379Z,32.99
2023-05-19T08:29:25.663Z,32.70
2023-05-19T08:30:25.398Z,30.90
2023-05-19T08:31:26.421Z,33.40
2023-05-19T08:32:25.563Z,33.44
2023-05-19T08:33:26.456Z,34.46
2023-05-19T08:34:25.660Z,33.71
2023-05-19T08:35:25.533Z,32.75
2023-05-19T08:36:25.584Z,33.95
2023-05-19T08:37:26.612Z,33.96
2023-05-19T08:38:26.664Z,35.09
2023-05-19T08:39:26.740Z,33.89
2023-05-19T08:40:25.787Z,34.52
2023-05-19T08:41:26.801Z,33.81
2023-05-19T08:42:25.927Z,34.45
2023-05-19T08:43:26.922Z,34.41
2023-05-19T08:44:26.960Z,35.79
2023-05-19T08:45:27.020Z,36.96
2023-05-19T08:46:26.286Z,35.80
2023-05-19T08:47:27.208Z,35.08
2023-05-19T08:48:26.132Z,34.34
2023-05-19T08:49:26.288Z,34.46
2023-05-19T08:50:26.275Z,35.06
2023-05-19T08:51:27.281Z,35.79
2023-05-19T08:52:26.381Z,34.94
2023-05-19T08:53:33.984Z,35.39
2023-05-19T08:54:27.360Z,35.72
2023-05-19T08:55:27.358Z,36.81
2023-05-19T08:56:27.325Z,36.87
2023-05-19T08:57:26.339Z,37.48
2023-05-19T08:58:28.049Z,38.05
2023-05-19T08:59:26.525Z,42.03
2023-05-19T09:00:27.333Z,40.30
2023-05-19T09:01:27.382Z,38.58
2023-05-19T09:02:26.348Z,39.31
2023-05-19T09:03:26.487Z,37.59
2023-05-19T09:04:27.741Z,38.50
2023-05-19T09:05:26.444Z,40.60
2023-05-19T09:06:27.404Z,41.62
2023-05-19T09:07:27.297Z,46.16
2023-05-19T09:08:26.325Z,44.29
2023-05-19T09:09:26.278Z,42.22
2023-05-19T09:10:29.210Z,41.86
2023-05-19T09:11:27.334Z,42.00
2023-05-19T09:12:26.278Z,42.68
2023-05-19T09:13:27.431Z,42.90
2023-05-19T09:14:27.564Z,42.85
2023-05-19T09:15:26.244Z,44.37
2023-05-19T09:16:29.366Z,42.31
2023-05-19T09:17:27.308Z,42.57
2023-05-19T09:18:27.218Z,42.91
2023-05-19T09:19:27.331Z,43.30
2023-05-19T09:20:26.205Z,44.41
2023-05-19T09:21:27.195Z,45.18
2023-05-19T09:22:27.336Z,45.44
2023-05-19T09:23:27.174Z,47.16
2023-05-19T09:24:27.192Z,46.74
2023-05-19T09:25:26.260Z,46.74
2023-05-19T09:26:27.265Z,47.53
2023-05-19T09:27:27.158Z,47.49
2023-05-19T09:28:27.128Z,49.56
2023-05-19T09:29:27.252Z,49.53
2023-05-19T09:30:27.114Z,49.81
2023-05-19T09:31:26.123Z,46.88
2023-05-19T09:32:26.260Z,50.29
2023-05-19T09:33:27.329Z,53.57
2023-05-19T09:34:26.093Z,51.28
2023-05-19T09:35:26.101Z,53.09
2023-05-19T09:36:27.083Z,54.44
2023-05-19T09:37:27.062Z,51.42
2023-05-19T09:38:26.128Z,49.73
2023-05-19T09:39:27.197Z,53.27
2023-05-19T09:40:27.054Z,52.04
2023-05-19T09:41:27.121Z,54.04
2023-05-19T09:42:27.148Z,51.37
2023-05-19T09:43:27.201Z,49.44
2023-05-19T09:44:26.347Z,48.24
2023-05-19T09:45:26.451Z,51.23
2023-05-19T09:46:27.389Z,52.05
2023-05-19T09:47:27.454Z,54.50
2023-05-19T09:48:27.536Z,55.53
2023-05-19T09:49:26.651Z,53.35
2023-05-19T09:50:27.567Z,55.81
2023-05-19T09:51:26.586Z,55.45
2023-05-19T09:52:26.864Z,57.06
2023-05-19T09:53:26.777Z,56.85
2023-05-19T09:54:27.684Z,56.64
2023-05-19T09:55:26.782Z,56.14
2023-05-19T09:56:27.764Z,57.35
2023-05-19T09:57:27.769Z,58.78
2023-05-19T09:58:28.072Z,59.74
2023-05-19T09:59:28.046Z,59.28
2023-05-19T10:00:27.992Z,57.45
2023-05-19T10:01:27.833Z,59.43
2023-05-19T10:02:27.930Z,57.39
2023-05-19T10:03:26.790Z,58.21
2023-05-19T10:04:26.878Z,58.96
2023-05-19T10:05:26.994Z,59.28
2023-05-19T10:06:26.772Z,62.20
2023-05-19T10:07:27.744Z,61.08
2023-05-19T10:08:26.768Z,60.68
2023-05-19T10:09:27.727Z,63.22
2023-05-19T10:10:27.729Z,60.83
2023-05-19T10:11:26.711Z,61.73
2023-05-19T10:12:27.851Z,59.21
2023-05-19T10:13:26.700Z,61.52
2023-05-19T10:14:26.694Z,62.83
2023-05-19T10:15:27.715Z,62.05
2023-05-19T10:16:26.798Z,59.79
2023-05-19T10:17:27.702Z,62.44
2023-05-19T10:18:27.942Z,62.97
2023-05-19T10:19:26.794Z,64.78
2023-05-19T10:20:26.676Z,63.82
2023-05-19T10:21:27.659Z,60.81
2023-05-19T10:22:27.635Z,62.80
2023-05-19T10:23:27.632Z,65.22
2023-05-19T10:24:27.692Z,65.26
2023-05-19T10:25:27.614Z,66.12
2023-05-19T10:26:26.598Z,61.88
2023-05-19T10:27:26.598Z,63.47
2023-05-19T10:28:27.599Z,66.71
2023-05-19T10:29:26.600Z,64.96
2023-05-19T10:30:27.836Z,64.62
2023-05-19T10:31:27.604Z,65.79
2023-05-19T10:32:26.682Z,63.67
2023-05-19T10:33:26.714Z,65.91
2023-05-19T10:34:27.570Z,65.37
2023-05-19T10:35:26.559Z,67.78
2023-05-19T10:36:27.541Z,67.42
2023-05-19T10:37:27.758Z,65.31
2023-05-19T10:38:27.519Z,66.64
2023-05-19T10:39:26.518Z,67.56
2023-05-19T10:40:27.618Z,70.04
2023-05-19T10:41:27.667Z,68.52
2023-05-19T10:42:27.506Z,67.70
2023-05-19T10:43:27.525Z,65.33
2023-05-19T10:44:27.469Z,69.48
2023-05-19T10:45:27.526Z,67.84
2023-05-19T10:46:27.544Z,65.88
2023-05-19T10:47:27.471Z,64.76
2023-05-19T10:48:27.460Z,67.26
2023-05-19T10:49:27.593Z,69.52
2023-05-19T10:50:27.630Z,68.99
2023-05-19T10:51:27.416Z,68.23
2023-05-19T10:52:27.494Z,69.87
2023-05-19T10:53:27.430Z,67.56
2023-05-19T10:54:26.392Z,70.12
2023-05-19T10:55:26.399Z,71.05
2023-05-19T10:56:26.459Z,69.50
2023-05-19T10:57:26.454Z,69.69
2023-05-19T10:58:26.396Z,62.52
2023-05-19T10:59:27.834Z,66.92
2023-05-19T11:00:26.374Z,69.54
2023-05-19T11:01:27.374Z,69.95
2023-05-19T11:02:27.362Z,67.66
2023-05-19T11:03:27.369Z,71.02
2023-05-19T11:04:26.442Z,62.87
2023-05-19T11:05:27.334Z,61.00
2023-05-19T11:06:26.331Z,62.19
2023-05-19T11:07:26.322Z,65.38
2023-05-19T11:08:26.321Z,66.36
2023-05-19T11:09:37.835Z,57.35
2023-05-19T11:10:27.313Z,57.54
2023-05-19T11:11:27.315Z,57.48
2023-05-19T11:12:27.304Z,55.68
2023-05-19T11:13:28.531Z,53.77
2023-05-19T11:14:27.441Z,51.02
2023-05-19T11:15:26.334Z,46.99
2023-05-19T11:16:26.281Z,47.14
2023-05-19T11:17:27.248Z,44.52
2023-05-19T11:18:27.238Z,45.21
2023-05-19T11:19:26.379Z,42.45
2023-05-19T11:20:26.322Z,40.17
2023-05-19T11:21:26.411Z,42.83
2023-05-19T11:22:27.329Z,40.18
2023-05-19T11:23:27.368Z,39.97
2023-05-19T11:24:26.366Z,43.30
2023-05-19T11:25:27.386Z,44.57
2023-05-19T11:26:26.418Z,40.56
2023-05-19T11:27:27.423Z,41.50
2023-05-19T11:28:27.442Z,39.80
2023-05-19T11:29:26.518Z,43.52
2023-05-19T11:30:26.719Z,39.53
2023-05-19T11:31:26.619Z,38.78
2023-05-19T11:32:27.713Z,41.89
2023-05-19T11:33:26.560Z,35.88
2023-05-19T11:34:27.528Z,38.53
2023-05-19T11:35:26.684Z,35.42
2023-05-19T11:36:26.558Z,35.94
2023-05-19T11:37:26.636Z,35.21
2023-05-19T11:38:26.704Z,38.13
2023-05-19T11:39:26.715Z,37.17
2023-05-19T11:40:26.596Z,37.68
2023-05-19T11:41:26.713Z,34.81
2023-05-19T11:42:26.864Z,35.09
2023-05-19T11:43:26.645Z,39.58
2023-05-19T11:44:27.636Z,37.94
2023-05-19T11:45:27.714Z,39.81
2023-05-19T11:46:27.813Z,35.67
2023-05-19T11:47:27.686Z,33.71
2023-05-19T11:48:26.963Z,35.07
2023-05-19T11:49:27.661Z,34.31
2023-05-19T11:50:27.717Z,35.67
2023-05-19T11:51:27.679Z,37.89
2023-05-19T11:52:27.830Z,34.64
2023-05-19T11:53:27.718Z,32.36
2023-05-19T11:54:27.672Z,34.25
2023-05-19T11:55:27.672Z,34.31
2023-05-19T11:56:27.877Z,31.68
2023-05-19T11:57:27.676Z,31.99
2023-05-19T11:58:26.876Z,32.89
2023-05-19T11:59:26.873Z,31.98
2023-05-19T12:00:26.638Z,31.18
2023-05-19T12:01:26.640Z,31.57
2023-05-19T12:02:26.898Z,30.99
2023-05-19T12:03:27.819Z,31.51
2023-05-19T12:04:27.656Z,35.16
2023-05-19T12:05:26.777Z,34.40
2023-05-19T12:06:26.689Z,33.49
2023-05-19T12:07:27.833Z,32.15
2023-05-19T12:08:27.893Z,32.80
2023-05-19T12:09:27.812Z,30.10
2023-05-19T12:10:26.895Z,34.09
2023-05-19T12:11:26.725Z,29.13
2023-05-19T12:12:26.831Z,26.91
2023-05-19T12:13:26.752Z,32.47
2023-05-19T12:14:27.823Z,31.28
2023-05-19T12:15:27.798Z,31.59
2023-05-19T12:16:27.933Z,29.65
2023-05-19T12:17:26.953Z,28.44
2023-05-19T12:18:27.046Z,28.24
2023-05-19T12:19:28.249Z,31.71
2023-05-19T12:20:27.088Z,28.60
2023-05-19T12:21:34.183Z,29.41
2023-05-19T12:22:28.109Z,29.73
2023-05-19T12:23:27.239Z,30.52
2023-05-19T12:24:27.207Z,31.47
2023-05-19T12:25:27.267Z,32.21
2023-05-19T12:26:27.098Z,34.75
2023-05-19T12:27:27.002Z,30.56
2023-05-19T12:28:28.048Z,30.19
2023-05-19T12:29:27.053Z,28.05
2023-05-19T12:30:27.005Z,30.19
2023-05-19T12:31:28.028Z,29.54
2023-05-19T12:32:27.089Z,32.18
2023-05-19T12:33:27.109Z,30.94
2023-05-19T12:34:27.368Z,27.23
2023-05-19T12:35:28.030Z,31.06
2023-05-19T12:36:27.081Z,33.70
2023-05-19T12:37:26.974Z,29.81
2023-05-19T12:38:27.969Z,31.64
2023-05-19T12:39:26.945Z,25.34
2023-05-19T12:40:26.906Z,26.62
2023-05-19T12:41:27.220Z,25.73
2023-05-19T12:42:28.063Z,33.48
2023-05-19T12:43:26.902Z,30.54
2023-05-19T12:44:28.081Z,33.14
2023-05-19T12:45:27.034Z,30.69
2023-05-19T12:46:28.420Z,27.51
2023-05-19T12:47:27.228Z,30.25
2023-05-19T12:48:27.307Z,28.34
2023-05-19T12:49:28.282Z,29.12
2023-05-19T12:50:28.430Z,30.23
2023-05-19T12:51:27.511Z,27.89
2023-05-19T12:52:27.374Z,29.20